createdAt,value
2018-11-25T00:00:42.583Z,23.77
2018-11-25T00:03:10.986Z,24.80
2018-11-25T00:05:39.402Z,23.70
2018-11-25T00:08:07.772Z,26.90
2018-11-25T00:10:36.144Z,26.87
2018-11-25T00:13:04.758Z,26.00
2018-11-25T00:15:33.058Z,25.50
2018-11-25T00:18:01.414Z,27.70
2018-11-25T00:20:29.738Z,27.27
2018-11-25T00:22:58.111Z,25.47
2018-11-25T00:25:26.475Z,27.03
2018-11-25T00:27:54.798Z,29.30
2018-11-25T00:30:23.129Z,28.47
2018-11-25T00:32:51.515Z,30.70
2018-11-25T00:35:19.810Z,31.30
2018-11-25T00:37:48.919Z,28.67
2018-11-25T00:40:16.756Z,29.17
2018-11-25T00:42:45.513Z,29.77
2018-11-25T00:45:17.945Z,32.00
2018-11-25T00:47:46.440Z,34.10
2018-11-25T00:50:15.063Z,32.27
2018-11-25T00:52:43.401Z,34.73
2018-11-25T00:55:13.803Z,33.93
2018-11-25T00:57:42.180Z,35.60
2018-11-25T01:00:18.389Z,36.87
2018-11-25T01:02:47.495Z,33.67
2018-11-25T01:05:15.751Z,36.97
2018-11-25T01:07:44.176Z,36.80
2018-11-25T01:10:14.181Z,39.23
2018-11-25T01:12:42.914Z,37.30
2018-11-25T01:15:13.150Z,36.63
2018-11-25T01:17:41.475Z,35.77
2018-11-25T01:20:13.033Z,37.60
2018-11-25T01:22:41.432Z,40.77
2018-11-25T01:25:10.385Z,39.20
2018-11-25T01:27:38.781Z,41.37
2018-11-25T01:30:11.365Z,45.30
2018-11-25T01:32:39.710Z,38.83
2018-11-25T01:35:09.317Z,40.20
2018-11-25T01:37:37.719Z,40.77
2018-11-25T01:40:09.515Z,42.23
2018-11-25T01:42:37.892Z,41.77
2018-11-25T01:45:07.630Z,42.97
2018-11-25T01:47:35.993Z,43.60
2018-11-25T01:50:05.288Z,44.00
2018-11-25T01:52:33.579Z,42.60
2018-11-25T01:55:01.911Z,47.30
2018-11-25T01:57:30.250Z,41.57
2018-11-25T01:59:58.638Z,48.80
2018-11-25T02:02:26.962Z,46.00
2018-11-25T02:04:55.264Z,44.30
2018-11-25T02:07:23.592Z,46.27
2018-11-25T02:09:52.014Z,48.37
2018-11-25T02:12:20.369Z,46.30
2018-11-25T02:14:48.754Z,50.27
2018-11-25T02:17:17.050Z,46.87
2018-11-25T02:19:45.427Z,48.87
2018-11-25T02:22:13.800Z,47.50
2018-11-25T02:24:42.129Z,47.97
2018-11-25T02:27:10.550Z,50.87
2018-11-25T02:29:38.853Z,49.83
2018-11-25T02:32:07.225Z,49.50
2018-11-25T02:34:35.622Z,51.40
2018-11-25T02:37:03.976Z,54.30
2018-11-25T02:39:32.297Z,50.40
2018-11-25T02:42:00.618Z,52.87
2018-11-25T02:44:28.922Z,54.07
2018-11-25T02:46:57.266Z,55.23
2018-11-25T02:49:25.612Z,52.97
2018-11-25T02:51:53.888Z,56.20
2018-11-25T02:54:22.195Z,52.60
2018-11-25T02:56:50.521Z,55.87
2018-11-25T02:59:18.838Z,58.10
2018-11-25T03:01:47.260Z,54.40
2018-11-25T03:04:15.668Z,55.40
2018-11-25T03:06:44.036Z,57.40
2018-11-25T03:09:12.384Z,53.10
2018-11-25T03:11:40.774Z,55.80
2018-11-25T03:14:09.080Z,57.60
2018-11-25T03:16:37.433Z,56.57
2018-11-25T03:19:05.848Z,57.50
2018-11-25T03:21:34.220Z,59.23
2018-11-25T03:24:02.731Z,58.20
2018-11-25T03:26:31.068Z,56.27
2018-11-25T03:28:59.380Z,56.67
2018-11-25T03:31:27.704Z,59.00
2018-11-25T03:33:56.166Z,59.10
2018-11-25T03:36:24.548Z,60.57
2018-11-25T03:38:52.932Z,58.80
2018-11-25T03:41:21.299Z,60.53
2018-11-25T03:43:49.605Z,58.00
2018-11-25T03:46:17.940Z,60.63
2018-11-25T03:48:46.275Z,63.20
2018-11-25T03:51:14.620Z,59.67
2018-11-25T03:53:42.956Z,61.27
2018-11-25T03:56:11.301Z,61.70
2018-11-25T03:58:39.650Z,59.33
2018-11-25T04:01:07.945Z,57.97
2018-11-25T04:03:36.270Z,62.87
2018-11-25T04:06:04.999Z,61.23
2018-11-25T04:08:33.331Z,64.57
2018-11-25T04:11:01.671Z,63.27
2018-11-25T04:13:29.984Z,66.40
2018-11-25T04:15:58.288Z,59.83
2018-11-25T04:18:26.690Z,59.17
2018-11-25T04:20:55.009Z,59.77
2018-11-25T04:23:29.981Z,63.30
2018-11-25T04:25:58.309Z,61.27
2018-11-25T04:28:26.609Z,57.30
2018-11-25T04:30:54.942Z,64.27
2018-11-25T04:33:23.341Z,64.63
2018-11-25T04:35:51.623Z,60.93
2018-11-25T04:38:19.959Z,66.47
2018-11-25T04:40:48.295Z,62.37
2018-11-25T04:43:16.663Z,67.47
2018-11-25T04:45:45.112Z,65.80
2018-11-25T04:48:13.419Z,66.37
2018-11-25T04:50:41.777Z,69.93
2018-11-25T04:53:10.084Z,65.20
2018-11-25T04:55:38.474Z,69.60
2018-11-25T04:58:06.876Z,66.93
2018-11-25T05:00:35.155Z,69.40
2018-11-25T05:03:03.468Z,74.97
2018-11-25T05:05:31.881Z,68.00
2018-11-25T05:08:00.297Z,71.77
2018-11-25T05:10:28.652Z,71.93
2018-11-25T05:12:56.986Z,75.07
2018-11-25T05:15:25.300Z,77.10
2018-11-25T05:17:53.645Z,72.97
2018-11-25T05:20:22.051Z,74.00
2018-11-25T05:22:50.354Z,71.27
2018-11-25T05:25:19.291Z,71.20
2018-11-25T05:27:47.652Z,73.37
2018-11-25T05:30:18.594Z,75.67
2018-11-25T05:32:46.969Z,69.63
2018-11-25T05:35:17.227Z,73.80
2018-11-25T05:37:45.680Z,71.27
2018-11-25T05:40:14.934Z,74.83
2018-11-25T05:42:43.298Z,66.57
2018-11-25T05:45:13.584Z,73.03
2018-11-25T05:47:41.952Z,74.70
2018-11-25T05:50:11.725Z,67.10
2018-11-25T05:52:40.031Z,77.87
2018-11-25T05:55:09.258Z,77.83
2018-11-25T05:57:37.705Z,75.33
2018-11-25T06:00:18.937Z,73.60
2018-11-25T06:02:47.316Z,76.37
2018-11-25T06:05:15.624Z,74.90
2018-11-25T06:07:43.931Z,71.33
2018-11-25T06:10:13.079Z,80.60
2018-11-25T06:12:41.581Z,73.07
2018-11-25T06:15:13.621Z,77.57
2018-11-25T06:17:42.108Z,73.17
2018-11-25T06:20:11.725Z,71.63
2018-11-25T06:22:40.149Z,73.77
2018-11-25T06:25:10.793Z,74.33
2018-11-25T06:27:39.121Z,79.03
2018-11-25T06:30:09.815Z,73.90
2018-11-25T06:32:38.223Z,76.20
2018-11-25T06:35:08.082Z,78.03
2018-11-25T06:37:36.437Z,74.80
2018-11-25T06:40:07.440Z,77.03
2018-11-25T06:42:35.921Z,80.60
2018-11-25T06:45:05.008Z,78.13
2018-11-25T06:47:33.291Z,82.97
2018-11-25T06:50:01.619Z,74.30
2018-11-25T06:52:29.925Z,79.03
2018-11-25T06:54:58.207Z,74.47
2018-11-25T06:57:26.542Z,93.87
2018-11-25T06:59:54.891Z,103.83
2018-11-25T07:02:23.205Z,109.40
2018-11-25T07:04:51.659Z,114.77
2018-11-25T07:07:20.198Z,104.30
2018-11-25T07:09:48.512Z,108.67
2018-11-25T07:12:16.850Z,107.23
2018-11-25T07:14:45.283Z,109.17
2018-11-25T07:17:13.619Z,107.57
2018-11-25T07:19:42.133Z,107.33
2018-11-25T07:22:10.731Z,106.93
2018-11-25T07:24:39.127Z,108.87
2018-11-25T07:27:07.502Z,103.27
2018-11-25T07:29:35.832Z,105.97
2018-11-25T07:32:04.198Z,105.97
2018-11-25T07:34:33.115Z,123.42
2018-11-25T07:37:01.451Z,105.13
2018-11-25T07:39:29.956Z,103.47
2018-11-25T07:41:58.227Z,102.57
2018-11-25T07:44:26.547Z,101.37
2018-11-25T07:46:55.191Z,92.73
2018-11-25T07:49:23.524Z,93.53
2018-11-25T07:51:51.881Z,93.43
2018-11-25T07:54:20.308Z,94.77
2018-11-25T07:56:48.670Z,96.40
2018-11-25T07:59:16.990Z,97.90
2018-11-25T08:01:45.437Z,95.97
2018-11-25T08:04:13.783Z,89.47
2018-11-25T08:06:42.161Z,88.87
2018-11-25T08:09:10.470Z,90.80
2018-11-25T08:11:38.819Z,88.13
2018-11-25T08:14:07.302Z,88.80
2018-11-25T08:16:35.938Z,87.33
2018-11-25T08:19:04.381Z,82.00
2018-11-25T08:21:32.774Z,84.43
2018-11-25T08:24:01.122Z,60.33
2018-11-25T08:26:29.446Z,50.77
2018-11-25T08:28:57.784Z,42.80
2018-11-25T08:31:26.883Z,34.70
2018-11-25T08:33:55.185Z,29.87
2018-11-25T08:36:23.510Z,25.87
2018-11-25T08:38:52.136Z,21.77
2018-11-25T08:41:20.868Z,19.53
2018-11-25T08:43:49.170Z,20.53
2018-11-25T08:46:17.510Z,16.97
2018-11-25T08:48:45.901Z,18.67
2018-11-25T08:51:14.207Z,13.87
2018-11-25T08:53:42.469Z,16.07
2018-11-25T08:56:10.813Z,14.13
2018-11-25T08:58:39.140Z,14.23
2018-11-25T09:01:07.539Z,26.23
2018-11-25T09:03:35.858Z,15.53
2018-11-25T09:06:04.218Z,22.13
2018-11-25T09:08:32.616Z,4.22
2018-11-25T09:11:00.994Z,4.67
2018-11-25T09:13:29.357Z,3.17
2018-11-25T09:15:57.768Z,3.17
2018-11-25T09:18:26.149Z,6.35
2018-11-25T09:20:54.502Z,3.77
2018-11-25T09:23:22.838Z,4.03
2018-11-25T09:25:51.147Z,2.98
2018-11-25T09:28:19.641Z,4.85
2018-11-25T09:30:47.958Z,5.30
2018-11-25T09:33:16.254Z,3.35
2018-11-25T09:35:44.692Z,3.47
2018-11-25T09:38:13.131Z,3.08
2018-11-25T09:40:41.422Z,4.30
2018-11-25T09:43:09.778Z,4.12
2018-11-25T09:45:38.314Z,2.92
2018-11-25T09:48:06.818Z,5.42
2018-11-25T09:50:35.467Z,9.55
2018-11-25T09:53:04.292Z,10.75
2018-11-25T09:55:33.849Z,14.73
2018-11-25T09:58:01.574Z,38.08
2018-11-25T10:00:33.123Z,13.28
2018-11-25T10:03:01.980Z,12.15
2018-11-25T10:05:30.296Z,13.05
2018-11-25T10:07:58.785Z,11.38
2018-11-25T10:10:27.234Z,12.30
2018-11-25T10:12:55.646Z,12.95
2018-11-25T10:15:25.937Z,13.43
2018-11-25T10:17:59.438Z,13.88
2018-11-25T10:20:25.664Z,15.95
2018-11-25T10:22:54.022Z,20.85
2018-11-25T10:25:22.315Z,45.95
2018-11-25T10:27:50.614Z,45.75
2018-11-25T10:30:21.897Z,66.87
2018-11-25T10:33:02.267Z,45.28
2018-11-25T10:35:30.696Z,45.17
2018-11-25T10:38:00.532Z,45.03
2018-11-25T10:40:28.938Z,45.30
2018-11-25T10:42:57.279Z,45.63
2018-11-25T10:45:26.599Z,45.43
2018-11-25T10:47:55.608Z,44.98
2018-11-25T10:50:23.989Z,44.35
2018-11-25T10:52:52.424Z,43.83
2018-11-25T10:55:21.676Z,44.33
2018-11-25T10:57:51.739Z,44.88
2018-11-25T11:00:27.576Z,63.90
2018-11-25T11:03:01.432Z,43.55
2018-11-25T11:05:35.293Z,43.55
2018-11-25T11:08:03.673Z,43.65
2018-11-25T11:10:32.000Z,44.25
2018-11-25T11:13:00.377Z,44.35
2018-11-25T11:15:28.870Z,45.15
2018-11-25T11:17:57.208Z,43.55
2018-11-25T11:20:25.603Z,43.55
2018-11-25T11:22:54.043Z,44.20
2018-11-25T11:25:22.426Z,43.02
2018-11-25T11:27:51.056Z,43.48
2018-11-25T11:30:19.414Z,58.55
2018-11-25T11:32:49.176Z,43.85
2018-11-25T11:35:17.636Z,43.45
2018-11-25T11:37:46.048Z,43.00
2018-11-25T11:40:15.153Z,43.40
2018-11-25T11:42:43.493Z,42.53
2018-11-25T11:45:12.890Z,50.78
2018-11-25T11:47:42.869Z,43.05
2018-11-25T11:50:16.624Z,43.15
2018-11-25T11:52:45.068Z,42.85
2018-11-25T11:55:14.577Z,43.17
2018-11-25T11:57:43.614Z,43.30
2018-11-25T12:00:13.652Z,50.03
2018-11-25T12:02:42.403Z,43.78
2018-11-25T12:05:10.783Z,43.17
2018-11-25T12:07:39.241Z,42.43
2018-11-25T12:10:11.199Z,42.03
2018-11-25T12:12:39.558Z,42.00
2018-11-25T12:15:14.596Z,45.20
2018-11-25T12:17:42.920Z,42.27
2018-11-25T12:20:11.624Z,42.23
2018-11-25T12:22:40.137Z,42.53
2018-11-25T12:25:16.254Z,41.92
2018-11-25T12:27:44.704Z,42.38
2018-11-25T12:30:15.007Z,50.17
2018-11-25T12:32:44.327Z,41.50
2018-11-25T12:35:13.931Z,41.68
2018-11-25T12:37:42.321Z,42.00
2018-11-25T12:40:12.925Z,42.38
2018-11-25T12:42:41.737Z,40.80
2018-11-25T12:45:15.489Z,44.53
2018-11-25T12:47:43.853Z,41.60
2018-11-25T12:50:14.399Z,41.90
2018-11-25T12:52:42.864Z,41.35
2018-11-25T12:55:12.925Z,40.73
2018-11-25T12:57:41.417Z,49.48
2018-11-25T13:00:18.961Z,47.13
2018-11-25T13:02:47.591Z,47.10
2018-11-25T13:05:16.250Z,41.48
2018-11-25T13:07:45.039Z,50.50
2018-11-25T13:10:13.395Z,46.08
2018-11-25T13:12:41.865Z,37.95
2018-11-25T13:15:10.655Z,51.23
2018-11-25T13:17:38.939Z,47.85
2018-11-25T13:20:10.155Z,46.45
2018-11-25T13:22:39.211Z,45.43
2018-11-25T13:25:09.415Z,48.20
2018-11-25T13:27:38.043Z,36.80
2018-11-25T13:30:14.450Z,41.68
2018-11-25T13:32:43.065Z,47.55
2018-11-25T13:35:12.049Z,48.48
2018-11-25T13:37:40.736Z,46.15
2018-11-25T13:40:10.364Z,45.67
2018-11-25T13:42:39.031Z,46.25
2018-11-25T13:45:06.399Z,45.35
2018-11-25T13:47:35.071Z,44.70
2018-11-25T13:50:03.418Z,45.73
2018-11-25T13:52:31.989Z,45.12
2018-11-25T13:55:00.400Z,44.53
2018-11-25T13:57:29.102Z,46.55
2018-11-25T13:59:58.068Z,47.00
2018-11-25T14:02:26.376Z,45.08
2018-11-25T14:04:54.843Z,43.52
2018-11-25T14:07:23.176Z,40.75
2018-11-25T14:09:51.911Z,44.20
2018-11-25T14:12:20.255Z,38.88
2018-11-25T14:14:48.591Z,40.30
2018-11-25T14:17:16.933Z,35.60
2018-11-25T14:19:45.358Z,41.13
2018-11-25T14:22:13.737Z,34.35
2018-11-25T14:24:42.060Z,41.88
2018-11-25T14:27:10.774Z,39.45
2018-11-25T14:29:39.101Z,38.85
2018-11-25T14:32:07.475Z,46.58
2018-11-25T14:34:35.843Z,47.43
2018-11-25T14:37:04.281Z,47.00
2018-11-25T14:39:32.610Z,44.48
2018-11-25T14:42:00.930Z,43.23
2018-11-25T14:44:29.310Z,44.00
2018-11-25T14:46:57.751Z,44.70
2018-11-25T14:49:26.076Z,49.05
2018-11-25T14:51:54.413Z,44.80
2018-11-25T14:54:22.814Z,44.77
2018-11-25T14:56:51.094Z,45.83
2018-11-25T14:59:19.515Z,51.58
2018-11-25T15:01:47.874Z,50.23
2018-11-25T15:04:16.163Z,49.23
2018-11-25T15:06:44.516Z,47.67
2018-11-25T15:09:12.854Z,45.12
2018-11-25T15:11:41.111Z,46.70
2018-11-25T15:14:09.454Z,43.58
2018-11-25T15:16:38.012Z,37.00
2018-11-25T15:19:07.036Z,46.95
2018-11-25T15:21:35.503Z,51.58
2018-11-25T15:24:03.842Z,49.65
2018-11-25T15:26:32.179Z,49.85
2018-11-25T15:29:00.574Z,52.27
2018-11-25T15:31:28.919Z,50.90
2018-11-25T15:33:57.254Z,51.23
2018-11-25T15:36:25.606Z,50.75
2018-11-25T15:38:54.006Z,50.63
2018-11-25T15:41:22.334Z,48.50
2018-11-25T15:43:50.660Z,48.68
2018-11-25T15:46:18.960Z,47.30
2018-11-25T15:48:47.234Z,48.10
2018-11-25T15:51:15.622Z,49.88
2018-11-25T15:53:43.932Z,44.27
2018-11-25T15:56:12.260Z,49.50
2018-11-25T15:58:40.677Z,48.08
2018-11-25T16:01:08.995Z,49.38
2018-11-25T16:03:37.280Z,48.30
2018-11-25T16:06:12.261Z,45.63
2018-11-25T16:08:40.554Z,44.03
2018-11-25T16:11:08.857Z,42.15
2018-11-25T16:13:37.225Z,42.83
2018-11-25T16:16:05.574Z,45.83
2018-11-25T16:18:33.985Z,45.48
2018-11-25T16:21:02.473Z,46.60
2018-11-25T16:23:30.788Z,46.75
2018-11-25T16:26:02.001Z,45.30
2018-11-25T16:28:33.718Z,42.48
2018-11-25T16:31:01.981Z,45.03
2018-11-25T16:33:30.416Z,43.92
2018-11-25T16:35:58.904Z,40.55
2018-11-25T16:38:27.218Z,41.83
2018-11-25T16:40:55.530Z,47.23
2018-11-25T16:43:23.984Z,44.18
2018-11-25T16:45:52.321Z,36.00
2018-11-25T16:48:20.738Z,42.85
2018-11-25T16:50:49.058Z,39.10
2018-11-25T16:53:17.559Z,42.67
2018-11-25T16:55:45.920Z,40.73
2018-11-25T16:58:14.231Z,43.30
2018-11-25T17:00:42.587Z,42.00
2018-11-25T17:03:10.940Z,39.53
2018-11-25T17:05:41.411Z,42.98
2018-11-25T17:08:14.949Z,36.50
2018-11-25T17:10:43.221Z,33.10
2018-11-25T17:13:11.597Z,33.13
2018-11-25T17:15:39.978Z,46.40
2018-11-25T17:18:08.363Z,38.28
2018-11-25T17:20:36.693Z,37.58
2018-11-25T17:23:05.450Z,41.88
2018-11-25T17:25:33.786Z,36.28
2018-11-25T17:28:02.067Z,40.05
2018-11-25T17:30:30.445Z,39.75
2018-11-25T17:32:58.754Z,43.10
2018-11-25T17:35:28.760Z,39.92
2018-11-25T17:37:57.120Z,40.80
2018-11-25T17:40:25.479Z,36.73
2018-11-25T17:42:53.786Z,39.70
2018-11-25T17:45:22.160Z,39.90
2018-11-25T17:47:50.529Z,40.30
2018-11-25T17:50:21.350Z,38.20
2018-11-25T17:52:49.854Z,44.90
2018-11-25T17:55:19.144Z,40.75
2018-11-25T17:57:47.528Z,44.88
2018-11-25T18:00:25.179Z,41.35
2018-11-25T18:02:53.471Z,41.73
2018-11-25T18:05:21.813Z,43.45
2018-11-25T18:07:50.133Z,43.13
2018-11-25T18:10:18.568Z,38.78
2018-11-25T18:12:47.124Z,36.70
2018-11-25T18:15:16.981Z,40.00
2018-11-25T18:17:54.537Z,39.35
2018-11-25T18:20:23.718Z,40.92
2018-11-25T18:22:52.085Z,41.77
2018-11-25T18:25:20.407Z,34.95
2018-11-25T18:27:48.749Z,39.35
2018-11-25T18:30:17.655Z,38.05
2018-11-25T18:32:46.568Z,37.03
2018-11-25T18:35:15.012Z,40.17
2018-11-25T18:37:43.407Z,37.05
2018-11-25T18:40:13.523Z,37.15
2018-11-25T18:42:42.802Z,34.95
2018-11-25T18:45:14.357Z,34.03
2018-11-25T18:47:44.220Z,34.88
2018-11-25T18:50:13.825Z,34.83
2018-11-25T18:52:43.199Z,43.38
2018-11-25T18:55:10.444Z,42.95
2018-11-25T18:57:38.837Z,48.80
2018-11-25T19:00:12.627Z,44.10
2018-11-25T19:02:43.699Z,44.90
2018-11-25T19:05:12.119Z,45.55
2018-11-25T19:07:40.580Z,48.70
2018-11-25T19:10:11.700Z,46.88
2018-11-25T19:12:44.241Z,45.43
2018-11-25T19:15:09.920Z,49.80
2018-11-25T19:17:38.228Z,49.38
2018-11-25T19:20:12.400Z,54.25
2018-11-25T19:22:41.271Z,57.35
2018-11-25T19:25:11.229Z,53.52
2018-11-25T19:27:39.884Z,41.30
2018-11-25T19:30:10.551Z,54.73
2018-11-25T19:32:38.896Z,41.13
2018-11-25T19:35:10.033Z,42.58
2018-11-25T19:37:38.356Z,41.95
2018-11-25T19:40:11.775Z,40.75
2018-11-25T19:42:40.199Z,40.20
2018-11-25T19:45:10.523Z,42.58
2018-11-25T19:47:39.002Z,41.68
2018-11-25T19:50:10.683Z,41.08
2018-11-25T19:52:39.056Z,40.95
2018-11-25T19:55:07.627Z,42.65
2018-11-25T19:57:35.995Z,40.28
2018-11-25T20:00:06.874Z,40.20
2018-11-25T20:02:35.523Z,39.80
2018-11-25T20:05:03.845Z,40.30
2018-11-25T20:07:32.179Z,39.00
2018-11-25T20:10:00.561Z,39.00
2018-11-25T20:12:34.390Z,40.25
2018-11-25T20:15:02.777Z,40.55
2018-11-25T20:17:31.158Z,40.58
2018-11-25T20:19:59.689Z,41.15
2018-11-25T20:22:28.055Z,40.90
2018-11-25T20:24:56.524Z,42.03
2018-11-25T20:27:30.698Z,41.20
2018-11-25T20:29:59.140Z,42.15
2018-11-25T20:32:33.006Z,41.75
2018-11-25T20:35:01.331Z,41.92
2018-11-25T20:37:29.661Z,41.63
2018-11-25T20:39:58.157Z,41.95
2018-11-25T20:42:26.476Z,41.58
2018-11-25T20:44:54.837Z,42.00
2018-11-25T20:47:23.183Z,41.85
2018-11-25T20:49:51.490Z,41.58
2018-11-25T20:52:25.166Z,41.58
2018-11-25T20:54:53.567Z,41.37
2018-11-25T20:57:21.883Z,41.30
2018-11-25T20:59:50.213Z,41.83
2018-11-25T21:02:20.409Z,41.08
2018-11-25T21:04:47.001Z,40.67
2018-11-25T21:07:15.315Z,40.03
2018-11-25T21:09:43.720Z,39.20
2018-11-25T21:12:12.143Z,39.30
2018-11-25T21:14:40.616Z,38.75
2018-11-25T21:17:08.941Z,38.48
2018-11-25T21:19:37.284Z,40.03
2018-11-25T21:22:05.902Z,54.03
2018-11-25T21:24:34.349Z,52.10
2018-11-25T21:27:02.726Z,52.08
2018-11-25T21:29:31.101Z,50.52
2018-11-25T21:31:59.494Z,48.13
2018-11-25T21:34:27.778Z,47.60
2018-11-25T21:36:56.070Z,42.43
2018-11-25T21:39:24.508Z,48.90
2018-11-25T21:41:52.874Z,44.60
2018-11-25T21:44:21.183Z,43.85
2018-11-25T21:46:49.598Z,43.95
2018-11-25T21:49:18.065Z,40.90
2018-11-25T21:51:46.533Z,43.38
2018-11-25T21:54:15.025Z,45.52
2018-11-25T21:56:43.322Z,42.62
2018-11-25T21:59:11.675Z,39.48
2018-11-25T22:01:39.968Z,40.70
2018-11-25T22:04:08.392Z,40.17
2018-11-25T22:06:36.821Z,33.63
2018-11-25T22:09:09.020Z,37.67
2018-11-25T22:11:37.763Z,40.38
2018-11-25T22:14:06.251Z,33.13
2018-11-25T22:16:34.613Z,37.95
2018-11-25T22:19:02.967Z,37.80
2018-11-25T22:21:31.325Z,34.25
2018-11-25T22:23:59.613Z,31.35
2018-11-25T22:26:28.056Z,28.27
2018-11-25T22:28:56.436Z,25.65
2018-11-25T22:31:24.854Z,28.50
2018-11-25T22:33:53.177Z,30.97
2018-11-25T22:36:21.470Z,26.80
2018-11-25T22:38:49.790Z,32.03
2018-11-25T22:41:18.132Z,23.73
2018-11-25T22:43:46.577Z,28.27
2018-11-25T22:46:14.947Z,23.10
2018-11-25T22:48:43.309Z,35.38
2018-11-25T22:51:11.674Z,30.68
2018-11-25T22:53:40.574Z,22.75
2018-11-25T22:56:08.894Z,37.08
2018-11-25T22:58:37.184Z,37.53
2018-11-25T23:01:06.155Z,31.20
2018-11-25T23:03:34.439Z,25.45
2018-11-25T23:06:18.025Z,25.35
2018-11-25T23:08:46.350Z,22.27
2018-11-25T23:11:17.294Z,32.45
2018-11-25T23:13:45.583Z,33.98
2018-11-25T23:16:13.857Z,33.15
2018-11-25T23:18:42.234Z,25.62
2018-11-25T23:21:10.583Z,31.37
2018-11-25T23:23:38.907Z,34.75
2018-11-25T23:26:07.221Z,39.20
2018-11-25T23:28:35.574Z,37.13
2018-11-25T23:31:03.899Z,29.98
2018-11-25T23:33:32.213Z,22.62
2018-11-25T23:36:00.549Z,26.73
2018-11-25T23:38:28.903Z,28.73
2018-11-25T23:40:57.235Z,22.90
2018-11-25T23:43:25.532Z,31.05
2018-11-25T23:45:53.911Z,41.48
2018-11-25T23:48:22.320Z,39.85
2018-11-25T23:50:50.614Z,34.10
2018-11-25T23:53:19.003Z,37.28
2018-11-25T23:55:47.277Z,34.53
2018-11-25T23:58:15.691Z,28.47
